Aviation Digital Data Service (ADDS)

Output produced by TAFs form (2134 UTC 17 September 2014)
found at http://aviationweather.gov/adds/tafs/
 
KMTJ 171733Z 1718/1818 VRB03KT P6SM SCT120 BKN200 
     FM171900 35005KT P6SM SCT120 BKN200 
     FM180200 14008KT P6SM FEW120 SCT200 
     FM181400 VRB04KT P6SM SKC